createdAt,value
2023-02-18T00:01:42.754Z,43.75
2023-02-18T00:04:11.229Z,44.50
2023-02-18T00:06:39.495Z,42.50
2023-02-18T00:09:09.354Z,46.00
2023-02-18T00:11:38.920Z,41.33
2023-02-18T00:14:11.595Z,43.50
2023-02-18T00:16:40.192Z,42.25
2023-02-18T00:19:12.389Z,44.00
2023-02-18T00:21:41.025Z,40.25
2023-02-18T00:24:11.583Z,40.00
2023-02-18T00:26:39.726Z,43.50
2023-02-18T00:29:08.302Z,40.00
2023-02-18T00:31:37.768Z,40.50
2023-02-18T00:34:06.555Z,40.00
2023-02-18T00:36:38.342Z,38.33
2023-02-18T00:39:09.283Z,40.00
2023-02-18T00:42:02.145Z,38.50
2023-02-18T00:44:30.852Z,38.50
2023-02-18T00:46:59.083Z,39.00
2023-02-18T00:49:27.625Z,39.00
2023-02-18T00:51:55.854Z,38.50
2023-02-18T00:54:24.387Z,36.50
2023-02-18T00:56:52.489Z,38.50
2023-02-18T00:59:20.956Z,36.75
2023-02-18T01:01:49.156Z,36.25
2023-02-18T01:04:17.858Z,36.00
2023-02-18T01:06:45.968Z,36.00
2023-02-18T01:09:15.109Z,36.00
2023-02-18T01:11:43.321Z,37.50
2023-02-18T01:14:11.694Z,37.50
2023-02-18T01:16:39.807Z,34.75
2023-02-18T01:19:10.421Z,35.67
2023-02-18T01:21:39.797Z,36.25
2023-02-18T01:24:08.241Z,35.00
2023-02-18T01:26:36.826Z,33.00
2023-02-18T01:29:05.268Z,34.00
2023-02-18T01:31:33.567Z,34.00
2023-02-18T01:34:02.138Z,35.00
2023-02-18T01:36:30.642Z,34.00
2023-02-18T01:38:59.146Z,34.25
2023-02-18T01:41:27.454Z,33.00
2023-02-18T01:44:24.673Z,33.00
2023-02-18T01:46:53.889Z,35.25
2023-02-18T01:49:29.483Z,34.00
2023-02-18T01:52:05.203Z,36.00
2023-02-18T01:54:39.908Z,31.50
2023-02-18T01:57:12.250Z,33.25
2023-02-18T01:59:45.134Z,31.00
2023-02-18T02:02:17.340Z,33.00
2023-02-18T02:04:46.152Z,34.00
2023-02-18T02:07:14.891Z,33.50
2023-02-18T02:09:43.730Z,31.67
2023-02-18T02:12:36.660Z,33.00
2023-02-18T02:15:06.798Z,32.33
2023-02-18T02:17:59.571Z,33.67
2023-02-18T02:20:58.572Z,35.00
2023-02-18T02:23:42.103Z,33.00
2023-02-18T02:26:45.496Z,31.25
2023-02-18T02:29:28.613Z,31.25
2023-02-18T02:32:20.781Z,32.25
2023-02-18T02:34:51.707Z,30.75
2023-02-18T02:37:38.513Z,33.00
2023-02-18T02:40:16.961Z,33.25
2023-02-18T02:42:53.586Z,33.50
2023-02-18T02:45:58.722Z,30.50
2023-02-18T02:48:45.636Z,32.00
2023-02-18T02:51:16.137Z,31.00
2023-02-18T02:53:45.086Z,33.25
2023-02-18T02:56:18.544Z,30.75
2023-02-18T02:58:55.086Z,30.67
2023-02-18T03:01:41.115Z,31.33
2023-02-18T03:04:09.454Z,31.50
2023-02-18T03:07:06.846Z,31.50
2023-02-18T03:09:42.449Z,32.50
2023-02-18T03:12:12.903Z,32.00
2023-02-18T03:15:05.027Z,30.00
2023-02-18T03:17:52.310Z,30.75
2023-02-18T03:20:37.112Z,31.50
2023-02-18T03:23:08.824Z,30.50
2023-02-18T03:25:39.386Z,29.25
2023-02-18T03:28:18.283Z,32.25
2023-02-18T03:30:57.714Z,33.00
2023-02-18T03:33:38.342Z,32.50
2023-02-18T03:36:07.842Z,31.00
2023-02-18T03:38:46.439Z,30.25
2023-02-18T03:41:15.420Z,29.00
2023-02-18T03:43:54.124Z,30.25
2023-02-18T03:46:22.745Z,29.00
2023-02-18T03:48:50.946Z,31.25
2023-02-18T03:51:20.058Z,32.50
2023-02-18T03:53:48.317Z,28.75
2023-02-18T03:56:17.387Z,30.25
2023-02-18T03:58:45.786Z,31.50
2023-02-18T04:01:14.604Z,33.00
2023-02-18T04:03:42.703Z,33.25
2023-02-18T04:06:11.491Z,34.75
2023-02-18T04:08:39.771Z,33.00
2023-02-18T04:11:08.589Z,32.75
2023-02-18T04:13:36.865Z,34.33
2023-02-18T04:16:05.959Z,32.00
2023-02-18T04:18:34.411Z,37.50
2023-02-18T04:21:03.251Z,38.25
2023-02-18T04:23:31.403Z,35.75
2023-02-18T04:26:00.022Z,34.75
2023-02-18T04:28:28.270Z,35.75
2023-02-18T04:30:56.745Z,39.00
2023-02-18T04:33:24.899Z,38.50
2023-02-18T04:35:53.349Z,42.00
2023-02-18T04:38:21.623Z,39.00
2023-02-18T04:40:50.241Z,38.67
2023-02-18T04:43:18.475Z,39.50
2023-02-18T04:45:47.190Z,37.50
2023-02-18T04:48:15.341Z,37.50
2023-02-18T04:50:45.170Z,38.75
2023-02-18T04:53:13.356Z,41.50
2023-02-18T04:55:41.896Z,42.50
2023-02-18T04:58:11.051Z,38.75
2023-02-18T05:00:41.221Z,40.67
2023-02-18T05:03:09.609Z,40.25
2023-02-18T05:05:38.585Z,44.75
2023-02-18T05:08:06.816Z,39.00
2023-02-18T05:10:35.303Z,41.25
2023-02-18T05:13:03.478Z,41.33
2023-02-18T05:15:32.108Z,41.50
2023-02-18T05:18:00.311Z,38.50
2023-02-18T05:20:29.078Z,37.75
2023-02-18T05:22:57.215Z,38.50
2023-02-18T05:25:25.978Z,39.00
2023-02-18T05:27:54.143Z,41.25
2023-02-18T05:30:22.721Z,40.50
2023-02-18T05:32:50.891Z,42.50
2023-02-18T05:35:19.338Z,40.00
2023-02-18T05:37:47.487Z,38.67
2023-02-18T05:40:16.170Z,38.50
2023-02-18T05:42:44.319Z,39.33
2023-02-18T05:45:12.735Z,37.25
2023-02-18T05:47:40.956Z,37.00
2023-02-18T05:50:09.944Z,36.25
2023-02-18T05:52:38.134Z,37.00
2023-02-18T05:55:06.906Z,37.25
2023-02-18T05:57:35.137Z,35.50
2023-02-18T06:00:05.626Z,35.33
2023-02-18T06:02:33.814Z,34.33
2023-02-18T06:05:02.536Z,36.00
2023-02-18T06:07:30.661Z,37.00
2023-02-18T06:09:59.074Z,33.75
2023-02-18T06:12:27.227Z,34.50
2023-02-18T06:14:55.645Z,35.33
2023-02-18T06:17:23.823Z,36.00
2023-02-18T06:19:52.336Z,33.33
2023-02-18T06:22:20.497Z,36.50
2023-02-18T06:24:49.051Z,34.00
2023-02-18T06:27:17.197Z,35.33
2023-02-18T06:29:45.598Z,37.25
2023-02-18T06:32:13.742Z,32.00
2023-02-18T06:34:42.315Z,33.33
2023-02-18T06:37:10.502Z,32.50
2023-02-18T06:39:40.256Z,34.75
2023-02-18T06:42:08.433Z,34.50
2023-02-18T06:44:38.031Z,34.75
2023-02-18T06:47:06.412Z,33.25
2023-02-18T06:49:36.639Z,36.50
2023-02-18T06:52:05.500Z,36.50
2023-02-18T06:54:34.437Z,34.00
2023-02-18T06:57:02.631Z,33.25
2023-02-18T06:59:31.089Z,38.00
2023-02-18T07:01:59.553Z,34.50
2023-02-18T07:04:28.113Z,32.50
2023-02-18T07:06:56.298Z,36.00
2023-02-18T07:09:24.746Z,34.00
2023-02-18T07:11:52.860Z,34.00
2023-02-18T07:14:21.496Z,32.75
2023-02-18T07:16:49.678Z,32.75
2023-02-18T07:19:18.252Z,33.50
2023-02-18T07:21:46.488Z,35.00
2023-02-18T07:24:14.916Z,35.33
2023-02-18T07:26:43.086Z,33.00
2023-02-18T07:29:11.588Z,34.50
2023-02-18T07:31:39.931Z,34.75
2023-02-18T07:34:08.931Z,32.67
2023-02-18T07:36:37.101Z,35.00
2023-02-18T07:39:05.846Z,32.75
2023-02-18T07:41:34.628Z,33.00
2023-02-18T07:44:03.177Z,37.25
2023-02-18T07:46:31.321Z,36.75
2023-02-18T07:48:59.935Z,36.75
2023-02-18T07:51:28.275Z,33.75
2023-02-18T07:53:56.769Z,34.75
2023-02-18T07:56:24.849Z,36.00
2023-02-18T07:58:53.566Z,37.00
2023-02-18T08:01:21.646Z,37.75
2023-02-18T08:03:50.457Z,37.67
2023-02-18T08:06:33.987Z,36.00
2023-02-18T08:09:02.660Z,39.50
2023-02-18T08:11:31.444Z,35.50
2023-02-18T08:13:59.976Z,39.75
2023-02-18T08:16:28.449Z,38.75
2023-02-18T08:18:57.522Z,37.75
2023-02-18T08:21:26.361Z,35.50
2023-02-18T08:23:55.096Z,37.50
2023-02-18T08:26:23.149Z,38.75
2023-02-18T08:28:51.694Z,37.75
2023-02-18T08:31:25.781Z,39.25
2023-02-18T08:33:55.348Z,40.33
2023-02-18T08:36:23.905Z,37.00
2023-02-18T08:38:52.375Z,43.50
2023-02-18T08:41:20.993Z,40.75
2023-02-18T08:43:50.021Z,37.67
2023-02-18T08:46:33.233Z,41.50
2023-02-18T08:49:05.968Z,37.75
2023-02-18T08:51:34.871Z,40.00
2023-02-18T08:54:03.499Z,40.00
2023-02-18T08:56:32.775Z,39.00
2023-02-18T08:59:01.263Z,39.67
2023-02-18T09:01:29.477Z,36.33
2023-02-18T09:03:58.328Z,37.25
2023-02-18T09:06:26.538Z,39.50
2023-02-18T09:08:55.066Z,37.75
2023-02-18T09:11:23.185Z,43.00
2023-02-18T09:13:51.781Z,41.25
2023-02-18T09:16:19.993Z,42.50
2023-02-18T09:18:52.124Z,40.00
2023-02-18T09:21:20.931Z,39.25
2023-02-18T09:23:50.357Z,41.67
2023-02-18T09:26:23.168Z,39.75
2023-02-18T09:28:52.780Z,39.75
2023-02-18T09:31:23.692Z,39.25
2023-02-18T09:34:03.238Z,38.75
2023-02-18T09:36:31.641Z,41.50
2023-02-18T09:39:00.917Z,42.00
2023-02-18T09:41:35.329Z,41.00
2023-02-18T09:44:21.927Z,43.00
2023-02-18T09:46:55.003Z,40.25
2023-02-18T09:49:26.352Z,39.75
2023-02-18T09:51:56.044Z,38.50
2023-02-18T09:54:24.516Z,42.00
2023-02-18T09:56:53.708Z,43.00
2023-02-18T09:59:24.234Z,40.67
2023-02-18T10:01:54.714Z,40.00
2023-02-18T10:04:34.758Z,39.50
2023-02-18T10:07:03.994Z,49.50
2023-02-18T10:09:35.739Z,52.25
2023-02-18T10:12:21.499Z,52.75
2023-02-18T10:14:52.468Z,56.67
2023-02-18T10:17:23.605Z,48.50
2023-02-18T10:19:54.271Z,48.25
2023-02-18T10:22:25.013Z,52.50
2023-02-18T10:24:57.331Z,50.75
2023-02-18T10:27:33.371Z,52.75
2023-02-18T10:30:25.102Z,52.25
2023-02-18T10:33:18.464Z,55.00
2023-02-18T10:36:09.765Z,49.50
2023-02-18T10:38:44.641Z,52.00
2023-02-18T10:41:15.951Z,50.00
2023-02-18T10:43:57.233Z,51.00
2023-02-18T10:46:40.857Z,43.67
2023-02-18T10:49:27.314Z,48.75
2023-02-18T10:51:57.394Z,48.00
2023-02-18T10:54:27.411Z,48.67
2023-02-18T10:57:00.644Z,50.00
2023-02-18T10:59:34.601Z,49.50
2023-02-18T11:02:12.241Z,50.25
2023-02-18T11:04:43.290Z,46.33
2023-02-18T11:07:17.238Z,49.33
2023-02-18T11:09:51.106Z,47.25
2023-02-18T11:12:54.592Z,49.50
2023-02-18T11:15:25.196Z,46.00
2023-02-18T11:18:15.779Z,44.50
2023-02-18T11:20:57.972Z,43.00
2023-02-18T11:23:26.800Z,46.75
2023-02-18T11:25:59.127Z,44.50
2023-02-18T11:28:33.707Z,44.50
2023-02-18T11:31:03.012Z,46.25
2023-02-18T11:33:33.211Z,43.00
2023-02-18T11:36:15.558Z,47.50
2023-02-18T11:39:07.988Z,51.00
2023-02-18T11:41:44.702Z,49.50
2023-02-18T11:44:28.507Z,45.00
2023-02-18T11:47:20.333Z,48.00
2023-02-18T11:50:02.673Z,45.75
2023-02-18T11:52:36.540Z,46.50
2023-02-18T11:55:07.707Z,50.50
2023-02-18T11:57:39.306Z,43.00
2023-02-18T12:00:24.440Z,47.00
2023-02-18T12:02:54.628Z,48.25
2023-02-18T12:05:25.938Z,52.75
2023-02-18T12:08:01.929Z,48.67
2023-02-18T12:10:35.533Z,49.50
2023-02-18T12:13:27.898Z,52.00
2023-02-18T12:16:26.968Z,49.25
2023-02-18T12:19:07.455Z,50.50
2023-02-18T12:22:25.446Z,46.00
2023-02-18T12:25:14.251Z,48.50
2023-02-18T12:28:13.555Z,47.00
2023-02-18T12:30:58.645Z,47.50
2023-02-18T12:33:41.119Z,49.00
2023-02-18T12:36:14.689Z,49.75
2023-02-18T12:39:12.256Z,46.50
2023-02-18T12:42:25.458Z,50.67
2023-02-18T12:45:35.648Z,49.00
2023-02-18T12:48:09.416Z,48.75
2023-02-18T12:50:46.105Z,49.00
2023-02-18T12:53:55.278Z,47.50
2023-02-18T12:56:54.948Z,50.25
2023-02-18T12:59:49.656Z,46.00
2023-02-18T13:02:39.654Z,47.00
2023-02-18T13:05:19.130Z,44.25
2023-02-18T13:08:19.043Z,44.00
2023-02-18T13:10:47.260Z,44.25
2023-02-18T13:13:19.264Z,47.50
2023-02-18T13:16:06.854Z,45.75
2023-02-18T13:18:39.113Z,45.00
2023-02-18T13:21:09.934Z,50.00
2023-02-18T13:23:43.849Z,46.50
2023-02-18T13:26:14.314Z,45.00
2023-02-18T13:29:07.844Z,44.50
2023-02-18T13:31:47.853Z,43.33
2023-02-18T13:34:34.769Z,44.75
2023-02-18T13:37:31.737Z,46.25
2023-02-18T13:40:01.859Z,43.75
2023-02-18T13:42:30.045Z,45.33
2023-02-18T13:44:58.544Z,44.75
2023-02-18T13:47:46.321Z,43.67
2023-02-18T13:50:25.995Z,40.75
2023-02-18T13:53:09.505Z,40.50
2023-02-18T13:56:16.850Z,42.25
2023-02-18T13:59:00.514Z,42.00
2023-02-18T14:01:48.863Z,43.75
2023-02-18T14:04:44.784Z,40.00
2023-02-18T14:07:19.142Z,41.00
2023-02-18T14:09:47.517Z,47.50
2023-02-18T14:12:31.012Z,42.50
2023-02-18T14:14:59.332Z,39.25
2023-02-18T14:17:33.564Z,43.00
2023-02-18T14:20:01.686Z,38.00
2023-02-18T14:22:45.960Z,39.50
2023-02-18T14:25:39.074Z,39.50
2023-02-18T14:28:36.668Z,39.50
2023-02-18T14:31:48.428Z,38.67
2023-02-18T14:34:20.145Z,36.25
2023-02-18T14:37:06.295Z,37.50
2023-02-18T14:40:06.744Z,36.75
2023-02-18T14:42:44.240Z,40.00
2023-02-18T14:45:15.814Z,38.25
2023-02-18T14:47:52.202Z,38.75
2023-02-18T14:50:21.453Z,41.00
2023-02-18T14:52:58.505Z,40.67
2023-02-18T14:55:31.028Z,36.50
2023-02-18T14:58:42.154Z,39.50
2023-02-18T15:01:18.439Z,40.25
2023-02-18T15:03:48.999Z,40.33
2023-02-18T15:06:32.549Z,39.00
2023-02-18T15:09:02.326Z,41.50
2023-02-18T15:11:41.245Z,41.50
2023-02-18T15:14:18.936Z,41.25
2023-02-18T15:16:48.820Z,38.00
2023-02-18T15:19:19.898Z,38.50
2023-02-18T15:21:50.801Z,37.75
2023-02-18T15:24:27.962Z,39.25
2023-02-18T15:27:00.456Z,39.75
2023-02-18T15:29:32.679Z,41.00
2023-02-18T15:32:01.931Z,39.75
2023-02-18T15:34:30.721Z,40.50
2023-02-18T15:37:01.091Z,41.00
2023-02-18T15:39:29.784Z,37.75
2023-02-18T15:42:28.631Z,42.00
2023-02-18T15:45:06.115Z,41.50
2023-02-18T15:47:34.632Z,37.50
2023-02-18T15:50:04.003Z,43.50
2023-02-18T15:52:35.026Z,40.25
2023-02-18T15:55:26.550Z,37.50
2023-02-18T15:57:55.286Z,38.00
2023-02-18T16:00:30.086Z,39.50
2023-02-18T16:03:15.146Z,39.25
2023-02-18T16:05:43.451Z,37.50
2023-02-18T16:08:18.194Z,37.25
2023-02-18T16:11:10.819Z,38.50
2023-02-18T16:13:46.665Z,41.00
2023-02-18T16:16:25.098Z,39.50
2023-02-18T16:18:54.079Z,40.75
2023-02-18T16:21:39.076Z,38.67
2023-02-18T16:24:29.388Z,38.50
2023-02-18T16:26:58.426Z,37.00
2023-02-18T16:29:40.453Z,39.25
2023-02-18T16:32:09.121Z,37.25
2023-02-18T16:34:37.798Z,37.33
2023-02-18T16:37:24.599Z,35.33
2023-02-18T16:39:55.482Z,37.25
2023-02-18T16:42:24.456Z,33.75
2023-02-18T16:44:53.078Z,34.75
2023-02-18T16:47:21.685Z,35.50
2023-02-18T16:49:51.662Z,36.50
2023-02-18T16:52:20.056Z,36.33
2023-02-18T16:54:50.424Z,33.75
2023-02-18T16:57:18.730Z,34.00
2023-02-18T16:59:47.586Z,35.25
2023-02-18T17:02:22.715Z,33.25
2023-02-18T17:04:57.459Z,36.75
2023-02-18T17:07:28.321Z,35.75
2023-02-18T17:09:56.918Z,36.00
2023-02-18T17:12:25.816Z,35.25
2023-02-18T17:14:54.520Z,35.50
2023-02-18T17:17:23.795Z,37.00
2023-02-18T17:19:52.388Z,36.00
2023-02-18T17:22:20.565Z,37.50
2023-02-18T17:24:49.060Z,36.00
2023-02-18T17:27:17.250Z,36.75
2023-02-18T17:29:45.820Z,33.67
2023-02-18T17:32:14.461Z,36.00
2023-02-18T17:34:43.086Z,37.50
2023-02-18T17:37:14.381Z,36.33
2023-02-18T17:39:42.926Z,37.00
2023-02-18T17:42:12.491Z,35.00
2023-02-18T17:44:41.513Z,37.75
2023-02-18T17:47:09.731Z,35.75
2023-02-18T17:49:38.289Z,37.00
2023-02-18T17:52:06.754Z,35.00
2023-02-18T17:54:35.224Z,35.00
2023-02-18T17:57:03.582Z,36.33
2023-02-18T17:59:32.127Z,37.50
2023-02-18T18:02:00.383Z,39.25
2023-02-18T18:04:29.290Z,39.25
2023-02-18T18:06:57.745Z,39.00
2023-02-18T18:09:26.431Z,37.75
2023-02-18T18:11:54.650Z,34.50
2023-02-18T18:14:23.360Z,36.50
2023-02-18T18:16:51.589Z,36.33
2023-02-18T18:19:20.134Z,36.25
2023-02-18T18:21:49.121Z,33.50
2023-02-18T18:24:17.749Z,37.00
2023-02-18T18:26:45.960Z,40.00
2023-02-18T18:29:14.391Z,39.00
2023-02-18T18:31:42.811Z,40.25
2023-02-18T18:34:11.353Z,40.00
2023-02-18T18:36:39.539Z,41.50
2023-02-18T18:39:08.761Z,41.67
2023-02-18T18:41:36.920Z,39.50
2023-02-18T18:44:05.616Z,42.50
2023-02-18T18:46:33.868Z,40.25
2023-02-18T18:49:02.532Z,42.50
2023-02-18T18:51:31.940Z,40.67
2023-02-18T18:54:00.546Z,42.33
2023-02-18T18:56:28.885Z,43.67
2023-02-18T18:58:57.531Z,43.75
2023-02-18T19:01:27.851Z,43.25
2023-02-18T19:03:56.522Z,42.25
2023-02-18T19:06:24.740Z,46.00
2023-02-18T19:08:53.643Z,44.00
2023-02-18T19:11:21.739Z,45.00
2023-02-18T19:13:50.113Z,41.75
2023-02-18T19:16:37.766Z,40.75
2023-02-18T19:19:06.209Z,44.50
2023-02-18T19:21:34.427Z,45.50
2023-02-18T19:24:02.924Z,42.75
2023-02-18T19:26:31.425Z,46.50
2023-02-18T19:29:00.341Z,45.00
2023-02-18T19:31:28.869Z,44.50
2023-02-18T19:33:57.420Z,49.00
2023-02-18T19:36:25.646Z,46.25
2023-02-18T19:38:54.550Z,46.25
2023-02-18T19:41:22.820Z,45.25
2023-02-18T19:43:51.299Z,47.67
2023-02-18T19:46:19.556Z,41.25
2023-02-18T19:48:50.572Z,41.75
2023-02-18T19:51:20.868Z,47.67
2023-02-18T19:53:49.757Z,45.25
2023-02-18T19:56:18.089Z,45.00
2023-02-18T19:58:46.730Z,45.25
2023-02-18T20:01:16.891Z,45.00
2023-02-18T20:03:45.605Z,45.00
2023-02-18T20:06:19.724Z,46.75
2023-02-18T20:08:48.446Z,42.25
2023-02-18T20:11:16.978Z,47.25
2023-02-18T20:13:47.727Z,42.50
2023-02-18T20:16:15.935Z,45.00
2023-02-18T20:18:44.497Z,46.00
2023-02-18T20:21:13.164Z,47.00
2023-02-18T20:23:41.928Z,44.33
2023-02-18T20:26:11.551Z,39.75
2023-02-18T20:28:39.999Z,47.00
2023-02-18T20:31:11.608Z,44.67
2023-02-18T20:33:42.372Z,46.50
2023-02-18T20:36:11.309Z,45.25
2023-02-18T20:38:39.798Z,45.00
2023-02-18T20:41:14.702Z,44.00
2023-02-18T20:59:14.912Z,44.25
2023-02-18T21:01:44.427Z,45.00
2023-02-18T21:04:14.406Z,42.75
2023-02-18T21:06:45.589Z,47.25
2023-02-18T21:09:15.894Z,44.50
2023-02-18T21:11:45.049Z,47.67
2023-02-18T21:14:13.359Z,47.00
2023-02-18T21:16:42.110Z,44.50
2023-02-18T21:19:16.246Z,45.75
2023-02-18T21:21:45.622Z,45.75
2023-02-18T21:24:13.922Z,46.00
2023-02-18T21:26:42.962Z,43.50
2023-02-18T21:29:11.211Z,45.50
2023-02-18T21:31:41.498Z,43.00
2023-02-18T21:34:14.496Z,47.75
2023-02-18T21:36:43.931Z,46.50
2023-02-18T21:39:12.283Z,47.00
2023-02-18T21:41:41.452Z,43.67
2023-02-18T21:44:10.162Z,46.75
2023-02-18T21:46:39.685Z,45.50
2023-02-18T21:49:11.031Z,48.33
2023-02-18T21:51:57.329Z,46.75
2023-02-18T21:54:27.403Z,46.50
2023-02-18T21:56:56.576Z,43.75
2023-02-18T21:59:27.214Z,45.00
2023-02-18T22:01:56.374Z,46.50
2023-02-18T22:04:25.622Z,45.50
2023-02-18T22:06:54.242Z,47.00
2023-02-18T22:09:22.870Z,47.00
2023-02-18T22:11:51.675Z,47.50
2023-02-18T22:14:20.525Z,48.00
2023-02-18T22:16:49.261Z,46.75
2023-02-18T22:19:17.546Z,45.75
2023-02-18T22:21:46.375Z,45.50
2023-02-18T22:24:16.746Z,45.75
2023-02-18T22:26:46.940Z,47.50
2023-02-18T22:29:16.855Z,48.75
2023-02-18T22:31:47.526Z,45.00
2023-02-18T22:34:16.609Z,46.67
2023-02-18T22:36:45.452Z,44.00
2023-02-18T22:39:15.392Z,44.25
2023-02-18T22:41:43.981Z,41.50
2023-02-18T22:44:14.391Z,48.50
2023-02-18T22:46:43.668Z,46.00
2023-02-18T22:49:12.688Z,46.00
2023-02-18T22:51:43.700Z,49.00
2023-02-18T22:54:16.473Z,43.67
2023-02-18T22:56:46.798Z,48.00
2023-02-18T22:59:17.838Z,45.00
2023-02-18T23:01:53.268Z,43.75
2023-02-18T23:04:22.019Z,47.00
2023-02-18T23:06:51.197Z,44.25
2023-02-18T23:09:22.631Z,41.00
2023-02-18T23:11:53.028Z,45.75
2023-02-18T23:14:22.075Z,39.67
2023-02-18T23:17:17.966Z,41.00
2023-02-18T23:19:54.182Z,42.50
2023-02-18T23:22:32.628Z,47.67
2023-02-18T23:25:01.931Z,46.50
2023-02-18T23:27:30.754Z,43.00
2023-02-18T23:29:59.150Z,44.00
2023-02-18T23:32:29.074Z,44.75
2023-02-18T23:34:57.281Z,45.00
2023-02-18T23:37:44.542Z,44.00
2023-02-18T23:40:14.981Z,47.50
2023-02-18T23:42:43.647Z,44.75
2023-02-18T23:45:11.857Z,45.67
2023-02-18T23:47:40.390Z,45.75
2023-02-18T23:50:08.903Z,44.00
2023-02-18T23:52:37.552Z,47.75
2023-02-18T23:55:06.152Z,47.75
2023-02-18T23:57:34.691Z,44.33
